createdAt,value
2018-12-23T00:02:00.525Z,8.43
2018-12-23T00:04:26.413Z,8.41
2018-12-23T00:06:52.324Z,8.44
2018-12-23T00:09:18.241Z,8.42
2018-12-23T00:11:44.727Z,8.46
2018-12-23T00:14:14.338Z,8.45
2018-12-23T00:16:43.319Z,8.46
2018-12-23T00:19:09.220Z,8.45
2018-12-23T00:21:35.084Z,8.48
2018-12-23T00:24:01.016Z,8.50
2018-12-23T00:26:26.878Z,8.52
2018-12-23T00:28:55.563Z,8.54
2018-12-23T00:31:21.578Z,8.58
2018-12-23T00:33:50.698Z,8.58
2018-12-23T00:36:17.861Z,8.59
2018-12-23T00:38:45.354Z,8.57
2018-12-23T00:41:11.289Z,8.56
2018-12-23T00:43:37.507Z,8.50
2018-12-23T00:46:03.369Z,8.54
2018-12-23T00:48:29.295Z,8.55
2018-12-23T00:50:57.008Z,8.54
2018-12-23T00:53:23.312Z,8.50
2018-12-23T00:55:53.697Z,8.54
2018-12-23T00:58:19.586Z,8.50
2018-12-23T01:00:46.445Z,8.49
2018-12-23T01:03:12.373Z,8.50
2018-12-23T01:05:41.680Z,8.47
2018-12-23T01:08:07.666Z,8.42
2018-12-23T01:10:36.763Z,8.46
2018-12-23T01:13:02.698Z,8.44
2018-12-23T01:15:32.557Z,8.41
2018-12-23T01:17:58.511Z,8.40
2018-12-23T01:20:24.444Z,8.41
2018-12-23T01:22:50.313Z,8.40
2018-12-23T01:25:16.161Z,8.34
2018-12-23T01:27:43.411Z,8.38
2018-12-23T01:30:09.615Z,8.41
2018-12-23T01:32:38.527Z,8.40
2018-12-23T01:35:04.552Z,8.32
2018-12-23T01:37:32.182Z,8.33
2018-12-23T01:39:58.092Z,8.41
2018-12-23T01:42:28.001Z,8.41
2018-12-23T01:44:54.029Z,8.38
2018-12-23T01:47:21.966Z,8.38
2018-12-23T01:49:47.840Z,8.30
2018-12-23T01:52:18.160Z,8.28
2018-12-23T01:54:44.080Z,8.22
2018-12-23T01:57:09.946Z,8.21
2018-12-23T01:59:35.843Z,8.06
2018-12-23T02:02:01.693Z,8.15
2018-12-23T02:04:27.732Z,8.13
2018-12-23T02:06:53.609Z,8.14
2018-12-23T02:09:22.405Z,8.12
2018-12-23T02:11:48.303Z,8.13
2018-12-23T02:14:17.037Z,8.22
2018-12-23T02:16:42.915Z,8.22
2018-12-23T02:19:11.745Z,8.20
2018-12-23T02:21:37.612Z,8.23
2018-12-23T02:24:06.404Z,8.26
2018-12-23T02:26:32.327Z,8.27
2018-12-23T02:29:01.303Z,8.25
2018-12-23T02:31:27.254Z,8.30
2018-12-23T02:33:53.247Z,8.28
2018-12-23T02:36:19.167Z,8.27
2018-12-23T02:38:45.147Z,8.31
2018-12-23T02:41:12.847Z,8.34
2018-12-23T02:43:39.497Z,8.38
2018-12-23T02:46:09.336Z,8.35
2018-12-23T02:48:35.235Z,8.37
2018-12-23T02:51:03.076Z,8.32
2018-12-23T02:53:28.988Z,8.33
2018-12-23T02:55:58.818Z,8.30
2018-12-23T02:58:24.705Z,8.31
2018-12-23T03:00:51.693Z,8.35
2018-12-23T03:03:17.620Z,8.35
2018-12-23T03:05:46.517Z,8.42
2018-12-23T03:08:12.399Z,8.41
2018-12-23T03:10:38.323Z,8.39
2018-12-23T03:13:04.219Z,8.41
2018-12-23T03:15:30.110Z,8.38
2018-12-23T03:17:59.077Z,8.41
2018-12-23T03:20:24.918Z,8.40
2018-12-23T03:22:54.721Z,8.41
2018-12-23T03:25:20.653Z,8.44
2018-12-23T03:27:48.413Z,8.43
2018-12-23T03:30:14.311Z,8.50
2018-12-23T03:32:44.187Z,8.52
2018-12-23T03:35:10.059Z,8.45
2018-12-23T03:37:37.822Z,8.41
2018-12-23T03:40:03.946Z,8.43
2018-12-23T03:42:33.470Z,8.40
2018-12-23T03:44:59.449Z,8.42
2018-12-23T03:47:25.404Z,8.47
2018-12-23T03:49:51.328Z,8.46
2018-12-23T03:52:17.235Z,8.47
2018-12-23T03:54:44.018Z,8.51
2018-12-23T03:57:09.895Z,8.51
2018-12-23T03:59:38.681Z,8.49
2018-12-23T04:02:04.566Z,8.48
2018-12-23T04:04:32.937Z,8.44
2018-12-23T04:06:59.095Z,8.45
2018-12-23T04:09:28.136Z,8.39
2018-12-23T04:11:54.021Z,8.38
2018-12-23T04:14:22.840Z,8.42
2018-12-23T04:16:48.732Z,8.45
2018-12-23T04:19:17.487Z,8.45
2018-12-23T04:21:44.827Z,8.45
2018-12-23T04:24:10.730Z,8.46
2018-12-23T04:26:36.621Z,8.46
2018-12-23T04:29:02.637Z,8.46
2018-12-23T04:31:29.446Z,8.46
2018-12-23T04:33:55.384Z,8.45
2018-12-23T04:36:34.013Z,8.53
2018-12-23T04:38:56.742Z,8.59
2018-12-23T04:41:22.635Z,8.59
2018-12-23T04:43:48.536Z,8.58
2018-12-23T04:46:14.589Z,8.57
2018-12-23T04:48:40.504Z,8.55
2018-12-23T04:51:08.382Z,8.47
2018-12-23T04:53:34.256Z,8.47
2018-12-23T04:56:04.118Z,8.47
2018-12-23T04:58:30.148Z,8.44
2018-12-23T05:00:56.235Z,8.42
2018-12-23T05:03:22.106Z,8.41
2018-12-23T05:05:48.034Z,8.45
2018-12-23T05:08:14.735Z,8.44
2018-12-23T05:10:40.632Z,8.42
2018-12-23T05:13:11.914Z,8.46
2018-12-23T05:15:37.902Z,8.24
2018-12-23T05:18:03.858Z,8.32
2018-12-23T05:20:29.745Z,8.38
2018-12-23T05:22:58.372Z,8.38
2018-12-23T05:25:24.236Z,8.34
2018-12-23T05:27:54.345Z,8.31
2018-12-23T05:30:20.256Z,8.34
2018-12-23T05:32:49.453Z,8.35
2018-12-23T05:35:15.316Z,8.37
2018-12-23T05:37:41.191Z,8.34
2018-12-23T05:40:07.145Z,8.33
2018-12-23T05:42:33.075Z,8.36
2018-12-23T05:45:00.493Z,8.34
2018-12-23T05:47:26.444Z,8.34
2018-12-23T05:49:55.374Z,8.31
2018-12-23T05:52:21.249Z,8.33
2018-12-23T05:54:49.007Z,8.33
2018-12-23T05:57:14.937Z,8.35
2018-12-23T05:59:43.645Z,8.32
2018-12-23T06:02:09.558Z,8.33
2018-12-23T06:04:38.306Z,8.30
2018-12-23T06:07:04.176Z,8.27
2018-12-23T06:09:33.019Z,8.31
2018-12-23T06:11:59.038Z,8.28
2018-12-23T06:14:25.234Z,8.25
2018-12-23T06:16:51.196Z,8.25
2018-12-23T06:19:17.144Z,8.24
2018-12-23T06:21:46.196Z,8.27
2018-12-23T06:24:12.097Z,8.32
2018-12-23T06:26:39.953Z,8.31
2018-12-23T06:29:05.833Z,8.32
2018-12-23T06:31:35.429Z,8.30
2018-12-23T06:34:01.351Z,8.27
2018-12-23T06:36:29.108Z,8.25
2018-12-23T06:38:56.527Z,8.26
2018-12-23T06:41:23.849Z,8.21
2018-12-23T06:43:50.890Z,8.18
2018-12-23T06:46:18.546Z,8.16
2018-12-23T06:48:44.419Z,8.13
2018-12-23T06:51:10.423Z,8.04
2018-12-23T06:53:36.330Z,7.94
2018-12-23T06:56:02.216Z,7.90
2018-12-23T06:58:31.134Z,7.89
2018-12-23T07:00:57.036Z,7.89
2018-12-23T07:03:26.890Z,7.92
2018-12-23T07:05:52.773Z,7.89
2018-12-23T07:08:20.600Z,7.86
2018-12-23T07:10:46.532Z,7.87
2018-12-23T07:13:14.428Z,7.88
2018-12-23T07:15:40.398Z,7.90
2018-12-23T07:18:08.794Z,7.91
2018-12-23T07:20:34.746Z,7.97
2018-12-23T07:23:03.623Z,7.99
2018-12-23T07:25:29.537Z,8.03
2018-12-23T07:27:55.497Z,8.14
2018-12-23T07:30:21.530Z,8.19
2018-12-23T07:32:47.405Z,8.21
2018-12-23T07:35:16.565Z,8.21
2018-12-23T07:37:42.422Z,8.26
2018-12-23T07:40:11.354Z,8.26
2018-12-23T07:42:37.253Z,8.23
2018-12-23T07:45:06.172Z,8.28
2018-12-23T07:47:32.082Z,8.34
2018-12-23T07:50:01.261Z,8.32
2018-12-23T07:52:27.206Z,8.27
2018-12-23T07:54:54.814Z,8.24
2018-12-23T07:57:20.768Z,8.12
2018-12-23T07:59:49.644Z,8.13
2018-12-23T08:02:15.578Z,8.17
2018-12-23T08:04:41.506Z,8.14
2018-12-23T08:07:07.355Z,8.16
2018-12-23T08:09:33.279Z,8.14
2018-12-23T08:12:02.367Z,8.13
2018-12-23T08:14:28.285Z,8.08
2018-12-23T08:16:56.034Z,8.06
2018-12-23T08:19:21.949Z,7.99
2018-12-23T08:21:50.409Z,8.01
2018-12-23T08:24:16.321Z,7.88
2018-12-23T08:26:46.799Z,8.05
2018-12-23T08:29:12.671Z,8.08
2018-12-23T08:31:40.323Z,8.12
2018-12-23T08:34:06.334Z,8.16
2018-12-23T08:36:36.161Z,8.17
2018-12-23T08:39:03.495Z,8.17
2018-12-23T08:41:29.385Z,8.12
2018-12-23T08:43:55.617Z,8.15
2018-12-23T08:46:21.481Z,8.14
2018-12-23T08:48:47.391Z,8.13
2018-12-23T08:51:13.278Z,8.13
2018-12-23T08:53:42.231Z,8.14
2018-12-23T08:56:08.174Z,8.23
2018-12-23T08:58:35.895Z,8.25
2018-12-23T09:01:01.808Z,8.32
2018-12-23T09:03:30.723Z,8.31
2018-12-23T09:05:56.618Z,8.35
2018-12-23T09:08:25.420Z,8.38
2018-12-23T09:10:51.326Z,8.46
2018-12-23T09:13:19.962Z,8.49
2018-12-23T09:15:45.883Z,8.53
2018-12-23T09:18:19.133Z,8.56
2018-12-23T09:20:39.642Z,8.62
2018-12-23T09:23:05.578Z,8.57
2018-12-23T09:25:31.553Z,8.59
2018-12-23T09:27:57.438Z,8.63
2018-12-23T09:30:27.739Z,8.68
2018-12-23T09:32:53.644Z,8.72
2018-12-23T09:35:22.894Z,8.82
2018-12-23T09:37:48.828Z,8.92
2018-12-23T09:40:16.399Z,8.95
2018-12-23T09:42:42.287Z,9.04
2018-12-23T09:45:11.961Z,9.10
2018-12-23T09:47:37.969Z,9.17
2018-12-23T09:50:48.033Z,9.32
2018-12-23T09:53:16.077Z,9.35
2018-12-23T09:55:42.292Z,9.46
2018-12-23T09:58:08.241Z,9.64
2018-12-23T10:00:34.249Z,9.64
2018-12-23T10:03:00.247Z,9.62
2018-12-23T10:05:27.104Z,9.55
2018-12-23T10:07:53.083Z,9.65
2018-12-23T10:10:19.059Z,9.65
2018-12-23T10:12:45.237Z,9.64
2018-12-23T10:15:11.208Z,9.55
2018-12-23T10:17:37.480Z,9.48
2018-12-23T10:20:05.873Z,9.47
2018-12-23T10:22:31.836Z,9.39
2018-12-23T10:24:57.796Z,9.41
2018-12-23T10:27:24.040Z,9.39
2018-12-23T10:29:50.338Z,9.45
2018-12-23T10:32:20.144Z,9.50
2018-12-23T10:34:46.366Z,9.51
2018-12-23T10:37:12.331Z,9.52
2018-12-23T10:39:38.789Z,9.49
2018-12-23T10:42:04.731Z,9.49
2018-12-23T10:44:30.710Z,9.57
2018-12-23T10:46:57.693Z,9.60
2018-12-23T10:49:23.832Z,9.63
2018-12-23T10:51:49.798Z,9.60
2018-12-23T10:54:16.052Z,9.64
2018-12-23T10:56:42.044Z,9.68
2018-12-23T10:59:08.548Z,9.69
2018-12-23T11:01:34.513Z,9.66
2018-12-23T11:04:00.955Z,9.65
2018-12-23T11:06:27.023Z,9.32
2018-12-23T11:08:52.993Z,9.67
2018-12-23T11:11:18.987Z,9.68
2018-12-23T11:13:44.951Z,9.62
2018-12-23T11:16:15.977Z,9.58
2018-12-23T11:18:42.356Z,9.55
2018-12-23T11:21:08.372Z,9.51
2018-12-23T11:23:34.591Z,9.54
2018-12-23T11:26:00.534Z,9.48
2018-12-23T11:28:26.495Z,9.48
2018-12-23T11:30:52.731Z,9.45
2018-12-23T11:33:18.745Z,9.44
2018-12-23T11:35:44.959Z,9.44
2018-12-23T11:38:10.936Z,9.39
2018-12-23T11:40:36.915Z,9.37
2018-12-23T11:43:03.501Z,9.37
2018-12-23T11:45:29.822Z,9.32
2018-12-23T11:47:55.766Z,9.31
2018-12-23T11:50:21.758Z,9.32
2018-12-23T11:52:48.008Z,9.28
2018-12-23T11:55:14.095Z,9.28
2018-12-23T11:57:40.118Z,9.22
2018-12-23T12:00:06.457Z,9.21
2018-12-23T12:02:33.189Z,9.11
2018-12-23T12:04:59.146Z,9.11
2018-12-23T12:07:25.443Z,9.11
2018-12-23T12:09:51.370Z,9.01
2018-12-23T12:12:17.343Z,8.95
2018-12-23T12:14:43.380Z,8.92
2018-12-23T12:17:09.341Z,8.87
2018-12-23T12:19:35.313Z,8.84
2018-12-23T12:22:01.436Z,8.85
2018-12-23T12:24:27.400Z,8.70
2018-12-23T12:26:53.392Z,8.75
2018-12-23T12:29:19.356Z,8.74
2018-12-23T12:31:45.924Z,8.77
2018-12-23T12:34:13.644Z,8.76
2018-12-23T12:36:39.970Z,8.76
2018-12-23T12:39:09.519Z,8.76
2018-12-23T12:41:35.795Z,8.72
2018-12-23T12:44:04.558Z,8.71
2018-12-23T12:46:30.516Z,8.62
2018-12-23T12:48:59.772Z,8.58
2018-12-23T12:51:26.172Z,8.56
2018-12-23T12:53:52.111Z,8.54
2018-12-23T12:56:18.075Z,8.47
2018-12-23T12:58:44.486Z,8.45
2018-12-23T13:01:10.464Z,8.46
2018-12-23T13:03:36.755Z,8.45
2018-12-23T13:06:05.542Z,8.40
2018-12-23T13:08:31.832Z,8.34
2018-12-23T13:11:00.793Z,8.37
2018-12-23T13:13:27.022Z,8.40
2018-12-23T13:15:52.984Z,8.44
2018-12-23T13:18:18.955Z,8.41
2018-12-23T13:20:48.051Z,8.39
2018-12-23T13:23:14.006Z,8.39
2018-12-23T13:25:42.994Z,8.39
2018-12-23T13:28:12.485Z,8.40
2018-12-23T13:30:39.171Z,8.39
2018-12-23T13:33:05.352Z,8.37
2018-12-23T13:35:31.319Z,8.32
2018-12-23T13:37:57.309Z,8.28
2018-12-23T13:40:41.933Z,8.20
2018-12-23T13:43:20.505Z,8.25
2018-12-23T13:45:53.584Z,8.21
2018-12-23T13:48:32.197Z,8.24
2018-12-23T13:51:29.419Z,8.14
2018-12-23T13:53:58.078Z,8.14
2018-12-23T13:56:33.612Z,8.14
2018-12-23T13:59:16.153Z,8.10
2018-12-23T14:02:07.043Z,8.03
2018-12-23T14:04:55.286Z,8.02
2018-12-23T14:07:46.475Z,8.02
2018-12-23T14:10:31.743Z,7.90
2018-12-23T14:12:59.881Z,7.95
2018-12-23T14:15:26.414Z,7.87
2018-12-23T14:17:52.377Z,7.87
2018-12-23T14:20:18.618Z,7.91
2018-12-23T14:22:44.870Z,7.91
2018-12-23T14:25:10.811Z,7.93
2018-12-23T14:27:36.798Z,7.93
2018-12-23T14:30:04.465Z,7.91
2018-12-23T14:32:30.763Z,7.91
2018-12-23T14:34:56.832Z,7.92
2018-12-23T14:37:22.794Z,7.93
2018-12-23T14:39:49.051Z,7.95
2018-12-23T14:42:15.010Z,7.95
2018-12-23T14:44:41.249Z,8.03
2018-12-23T14:47:07.228Z,8.03
2018-12-23T14:49:33.473Z,8.02
2018-12-23T14:52:02.126Z,8.06
2018-12-23T14:54:28.759Z,8.07
2018-12-23T14:56:54.674Z,8.07
2018-12-23T14:59:20.642Z,8.06
2018-12-23T15:01:46.735Z,8.10
2018-12-23T15:04:13.011Z,8.12
2018-12-23T15:06:38.971Z,8.13
2018-12-23T15:09:05.273Z,8.11
2018-12-23T15:11:31.338Z,8.21
2018-12-23T15:13:57.327Z,8.13
2018-12-23T15:16:23.257Z,8.18
2018-12-23T15:18:49.228Z,8.13
2018-12-23T15:21:15.458Z,8.13
2018-12-23T15:23:41.447Z,7.76
2018-12-23T15:26:07.681Z,8.18
2018-12-23T15:28:33.634Z,8.18
2018-12-23T15:31:02.517Z,8.18
2018-12-23T15:33:28.609Z,8.18
2018-12-23T15:35:54.544Z,8.20
2018-12-23T15:38:20.531Z,8.23
2018-12-23T15:40:46.467Z,8.24
2018-12-23T15:43:12.437Z,8.23
2018-12-23T15:45:38.617Z,8.25
2018-12-23T15:48:04.743Z,8.28
2018-12-23T15:50:30.711Z,8.27
2018-12-23T15:52:57.013Z,8.37
2018-12-23T15:55:23.259Z,8.41
2018-12-23T15:57:49.244Z,8.41
2018-12-23T16:00:15.193Z,8.49
2018-12-23T16:02:41.174Z,8.54
2018-12-23T16:05:07.459Z,8.55
2018-12-23T16:07:33.677Z,8.23
2018-12-23T16:09:59.840Z,8.65
2018-12-23T16:12:25.804Z,8.73
2018-12-23T16:14:51.815Z,8.75
2018-12-23T16:17:17.769Z,8.75
2018-12-23T16:19:43.742Z,8.73
2018-12-23T16:22:09.721Z,8.77
2018-12-23T16:24:35.703Z,8.80
2018-12-23T16:27:01.685Z,8.80
2018-12-23T16:29:30.675Z,8.90
2018-12-23T16:31:57.148Z,8.93
2018-12-23T16:34:26.135Z,8.96
2018-12-23T16:36:52.331Z,9.00
2018-12-23T16:39:18.629Z,9.04
2018-12-23T16:41:44.593Z,9.08
2018-12-23T16:44:13.589Z,9.16
2018-12-23T16:46:39.788Z,9.29
2018-12-23T16:49:05.736Z,9.39
2018-12-23T16:51:32.013Z,9.58
2018-12-23T16:53:58.088Z,9.72
2018-12-23T16:56:25.705Z,9.85
2018-12-23T16:58:51.711Z,10.00
2018-12-23T17:01:20.445Z,10.17
2018-12-23T17:03:46.622Z,10.26
2018-12-23T17:06:15.765Z,10.33
2018-12-23T17:08:42.004Z,10.35
2018-12-23T17:11:10.802Z,10.40
2018-12-23T17:13:36.760Z,10.48
2018-12-23T17:16:02.705Z,10.51
2018-12-23T17:18:28.711Z,10.59
2018-12-23T17:20:54.663Z,10.65
2018-12-23T17:23:23.417Z,10.66
2018-12-23T17:25:49.673Z,10.70
2018-12-23T17:28:15.669Z,10.75
2018-12-23T17:30:41.867Z,10.74
2018-12-23T17:33:11.166Z,10.74
2018-12-23T17:35:37.605Z,10.77
2018-12-23T17:38:04.878Z,10.78
2018-12-23T17:40:30.829Z,10.85
2018-12-23T17:43:02.067Z,10.88
2018-12-23T17:45:28.032Z,10.90
2018-12-23T17:47:57.000Z,10.91
2018-12-23T17:50:22.933Z,10.92
2018-12-23T17:52:49.203Z,10.91
2018-12-23T17:55:15.192Z,10.91
2018-12-23T17:57:41.168Z,10.91
2018-12-23T18:00:07.493Z,10.95
2018-12-23T18:02:33.489Z,10.95
2018-12-23T18:05:02.610Z,10.92
2018-12-23T18:07:28.613Z,9.43
2018-12-23T18:09:57.617Z,10.87
2018-12-23T18:12:23.593Z,10.81
2018-12-23T18:14:52.973Z,10.84
2018-12-23T18:17:19.991Z,10.85
2018-12-23T18:19:46.571Z,10.84
2018-12-23T18:22:12.554Z,10.87
2018-12-23T18:24:40.447Z,10.87
2018-12-23T18:27:06.665Z,10.93
2018-12-23T18:29:32.630Z,10.93
2018-12-23T18:31:58.605Z,10.92
2018-12-23T18:34:24.628Z,10.95
2018-12-23T18:36:53.636Z,10.96
2018-12-23T18:39:19.618Z,10.94
2018-12-23T18:41:48.329Z,10.96
2018-12-23T18:44:14.308Z,10.99
2018-12-23T18:46:45.097Z,11.02
2018-12-23T18:49:11.338Z,11.03
2018-12-23T18:51:37.326Z,11.08
2018-12-23T18:54:03.342Z,11.12
2018-12-23T18:56:31.212Z,11.12
2018-12-23T18:58:57.320Z,11.14
2018-12-23T19:01:26.572Z,11.13
2018-12-23T19:03:52.754Z,11.14
2018-12-23T19:06:18.800Z,11.20
2018-12-23T19:08:48.478Z,11.22
2018-12-23T19:11:18.748Z,11.20
2018-12-23T19:14:05.449Z,11.20
2018-12-23T19:16:38.224Z,11.23
2018-12-23T19:19:32.609Z,11.23
2018-12-23T19:22:25.855Z,11.29
2018-12-23T19:24:55.611Z,11.28
2018-12-23T19:27:37.605Z,11.26
2018-12-23T19:30:35.102Z,11.29
2018-12-23T19:33:07.705Z,11.30
2018-12-23T19:35:41.112Z,11.26
2018-12-23T19:38:16.599Z,11.19
2018-12-23T19:41:01.105Z,11.23
2018-12-23T19:43:49.140Z,11.26
2018-12-23T19:46:45.130Z,11.22
2018-12-23T19:49:36.190Z,11.22
2018-12-23T19:52:22.921Z,11.23
2018-12-23T19:55:01.134Z,11.20
2018-12-23T19:57:41.543Z,11.19
2018-12-23T20:00:26.337Z,11.19
2018-12-23T20:03:14.030Z,11.18
2018-12-23T20:06:07.143Z,11.15
2018-12-23T20:09:01.205Z,11.17
2018-12-23T20:11:47.940Z,11.18
2018-12-23T20:14:34.711Z,11.19
2018-12-23T20:17:39.947Z,11.19
2018-12-23T20:20:22.094Z,11.17
2018-12-23T20:23:00.934Z,11.21
2018-12-23T20:25:46.341Z,11.27
2018-12-23T20:28:37.190Z,11.35
2018-12-23T20:31:18.822Z,11.37
2018-12-23T20:34:05.570Z,11.36
2018-12-23T20:36:37.895Z,11.38
2018-12-23T20:39:13.666Z,11.37
2018-12-23T20:41:58.865Z,11.34
2018-12-23T20:44:47.445Z,11.33
2018-12-23T20:47:38.073Z,11.33
2018-12-23T20:50:15.437Z,11.34
2018-12-23T20:52:54.257Z,11.34
2018-12-23T20:55:32.853Z,11.38
2018-12-23T20:58:19.499Z,10.70
2018-12-23T21:00:56.458Z,11.40
2018-12-23T21:03:53.108Z,11.39
2018-12-23T21:06:26.074Z,11.39
2018-12-23T21:09:29.917Z,11.43
2018-12-23T21:12:20.098Z,11.44
2018-12-23T21:15:23.816Z,11.43
2018-12-23T21:17:56.663Z,11.43
2018-12-23T21:21:00.376Z,11.47
2018-12-23T21:23:51.343Z,11.54
2018-12-23T21:26:24.068Z,11.57
2018-12-23T21:29:27.528Z,11.61
2018-12-23T21:31:59.891Z,11.59
2018-12-23T21:34:49.594Z,11.55
2018-12-23T21:37:37.061Z,11.55
2018-12-23T21:40:25.813Z,11.47
2018-12-23T21:43:00.876Z,11.40
2018-12-23T21:45:50.881Z,11.34
2018-12-23T21:48:42.061Z,11.28
2018-12-23T21:51:17.480Z,11.23
2018-12-23T21:54:11.744Z,11.14
2018-12-23T21:56:47.976Z,11.14
2018-12-23T21:59:23.064Z,11.10
2018-12-23T22:02:02.098Z,11.09
2018-12-23T22:04:40.286Z,11.11
2018-12-23T22:07:27.011Z,11.10
2018-12-23T22:09:59.686Z,11.08
2018-12-23T22:12:41.803Z,11.07
2018-12-23T22:15:07.784Z,11.05
2018-12-23T22:17:33.961Z,11.00
2018-12-23T22:20:00.242Z,10.99
2018-12-23T22:22:26.240Z,10.99
2018-12-23T22:24:52.315Z,10.99
2018-12-23T22:27:18.282Z,11.02
2018-12-23T22:29:44.224Z,10.85
2018-12-23T22:32:10.456Z,11.08
2018-12-23T22:34:36.421Z,11.10
2018-12-23T22:37:02.464Z,11.12
2018-12-23T22:39:28.454Z,11.13
2018-12-23T22:41:57.446Z,11.11
2018-12-23T22:44:23.689Z,11.11
2018-12-23T22:46:49.779Z,11.11
2018-12-23T22:49:16.040Z,11.09
2018-12-23T22:51:42.022Z,11.09
2018-12-23T22:54:11.019Z,11.06
2018-12-23T22:56:37.316Z,11.06
2018-12-23T22:59:03.383Z,11.08
2018-12-23T23:01:29.629Z,11.07
2018-12-23T23:03:57.937Z,11.09
2018-12-23T23:06:23.967Z,11.05
2018-12-23T23:09:10.065Z,11.05
2018-12-23T23:11:36.023Z,11.03
2018-12-23T23:14:02.027Z,11.02
2018-12-23T23:16:27.980Z,11.02
2018-12-23T23:18:53.967Z,11.02
2018-12-23T23:21:20.216Z,11.03
2018-12-23T23:23:46.202Z,11.02
2018-12-23T23:26:12.328Z,11.04
2018-12-23T23:28:39.666Z,11.06
2018-12-23T23:31:05.730Z,11.05
2018-12-23T23:33:31.732Z,11.05
2018-12-23T23:35:57.876Z,11.04
2018-12-23T23:38:25.889Z,11.05
2018-12-23T23:40:52.116Z,11.03
2018-12-23T23:43:18.378Z,11.00
2018-12-23T23:45:44.382Z,11.01
2018-12-23T23:48:10.656Z,11.04
2018-12-23T23:50:36.637Z,11.00
2018-12-23T23:53:02.598Z,11.01
2018-12-23T23:55:28.568Z,11.01
2018-12-23T23:57:55.688Z,11.01
